Time;durP1;ratioP1;P1;durP2;ratioP2;P2;SDS_P1;SDS_P2;PMS_P1;PMS_P2;Temp;Humidity;BMP_temperature;BMP_pressure;BME280_temperature;BME280_humidity;BME280_pressure;Samples;Min_cycle;Max_cycle;Signal;HPM_P1;HPM_P2
2022/03/31 00:04:40;;;;;;;5.42;3.77;;;;;;;9.13;43.02;98969.68;2220405;89;25770;-75
2022/03/31 00:08:15;;;;;;;5.47;4.17;;;;;;;9.08;43.10;98967.06;2143892;91;25846;-76
2022/03/31 00:11:42;;;;;;;6.65;4.10;;;;;;;9.05;43.19;98962.27;2116630;92;25813;-74
2022/03/31 00:15:12;;;;;;;6.03;4.90;;;;;;;9.03;43.25;98970.48;2223138;87;26027;-74
2022/03/31 00:18:39;;;;;;;7.08;3.92;;;;;;;8.99;43.33;98969.59;2201710;89;25718;-74
2022/03/31 00:22:29;;;;;;;4.20;3.47;;;;;;;8.97;43.38;98969.56;2220942;87;25701;-74
2022/03/31 00:29:46;;;;;;;11.22;4.65;;;;;;;8.87;43.52;98957.79;2053737;96;25843;-74
2022/03/31 00:33:18;;;;;;;4.75;3.30;;;;;;;8.85;43.50;98955.19;2136742;89;25830;-75
2022/03/31 00:36:50;;;;;;;4.50;3.35;;;;;;;8.82;43.53;98947.80;2210275;88;25464;-74
2022/03/31 00:40:19;;;;;;;5.92;2.62;;;;;;;8.77;43.56;98950.34;2214058;88;25760;-74
2022/03/31 00:43:48;;;;;;;4.28;3.10;;;;;;;8.70;43.58;98944.67;2199201;87;25889;-73
2022/03/31 00:47:09;;;;;;;4.10;2.87;;;;;;;8.68;43.65;98951.16;2144892;90;25728;-74
2022/03/31 00:51:00;;;;;;;3.83;3.22;;;;;;;8.62;43.67;98954.14;2076781;93;25856;-73
2022/03/31 00:54:47;;;;;;;;;;;;;;;;;;;;;
2022/03/31 00:58:13;;;;;;;6.35;3.10;;;;;;;8.50;43.76;98939.30;2074201;93;25911;-74
2022/03/31 01:02:17;;;;;;;5.00;3.10;;;;;;;8.47;43.80;98944.47;2133129;92;25629;-73
2022/03/31 01:05:47;;;;;;;3.55;2.83;;;;;;;8.45;43.84;98935.81;2132527;91;25761;-74
2022/03/31 01:09:18;;;;;;;4.72;3.27;;;;;;;8.43;43.83;98939.67;2134241;91;25695;-73
2022/03/31 01:12:53;;;;;;;5.30;2.90;;;;;;;8.41;43.86;98930.16;2134723;91;25738;-73
2022/03/31 01:16:16;;;;;;;4.28;2.90;;;;;;;8.40;43.88;98931.85;2200553;88;26046;-74
2022/03/31 01:19:37;;;;;;;4.22;2.92;;;;;;;8.40;43.90;98925.80;2204728;89;25707;-74
2022/03/31 01:23:08;;;;;;;4.47;3.00;;;;;;;8.36;43.92;98924.00;2205014;89;26114;-74
2022/03/31 01:26:30;;;;;;;3.83;2.85;;;;;;;8.31;43.96;98921.38;2182716;89;25763;-74
2022/03/31 01:30:08;;;;;;;;;;;;;;;;;;;;;
2022/03/31 01:33:26;;;;;;;6.62;2.80;;;;;;;8.24;44.06;98917.84;2205057;88;25674;-75
2022/03/31 01:36:47;;;;;;;4.70;2.90;;;;;;;8.19;44.12;98923.84;2275922;83;25733;-74
2022/03/31 01:40:25;;;;;;;4.00;2.87;;;;;;;8.18;44.18;98928.60;2361744;82;25695;-74
2022/03/31 01:43:51;;;;;;;5.45;2.87;;;;;;;8.17;44.22;98925.58;2356920;83;25641;-74
2022/03/31 01:47:17;;;;;;;5.15;2.58;;;;;;;8.15;44.21;98924.67;2356445;84;25898;-76
2022/03/31 01:50:47;;;;;;;4.33;2.80;;;;;;;8.12;44.17;98919.45;2333609;84;25603;-73
2022/03/31 01:54:08;;;;;;;6.87;2.80;;;;;;;8.07;44.20;98925.04;2255853;87;26070;-74
2022/03/31 01:57:32;;;;;;;4.40;2.80;;;;;;;8.07;44.20;98920.71;2255745;87;25689;-74
2022/03/31 02:00:53;;;;;;;4.47;2.77;;;;;;;8.02;44.25;98929.73;2255859;84;25780;-74
2022/03/31 02:04:17;;;;;;;3.30;2.77;;;;;;;7.98;44.31;98920.61;2255654;87;25629;-74
2022/03/31 02:07:57;;;;;;;2.85;2.02;;;;;;;7.96;44.38;98919.28;2254450;87;25641;-74
2022/03/31 02:11:30;;;;;;;5.05;2.77;;;;;;;7.98;44.31;98926.67;2265163;87;25983;-73
2022/03/31 02:14:54;;;;;;;3.58;2.77;;;;;;;7.95;44.38;98925.33;2262846;86;25248;-76
2022/03/31 02:18:15;;;;;;;3.75;2.58;;;;;;;7.93;44.39;98934.84;2255435;86;26017;-74
2022/03/31 02:21:40;;;;;;;3.02;2.45;;;;;;;7.94;44.40;98932.68;2255973;87;25722;-73
2022/03/31 02:25:20;;;;;;;4.42;2.95;;;;;;;7.93;44.38;98933.95;2256092;87;25844;-72
2022/03/31 02:29:28;;;;;;;6.58;2.75;;;;;;;7.92;44.37;98930.91;2255280;86;25582;-73
2022/03/31 02:33:04;;;;;;;2.65;2.37;;;;;;;7.91;44.39;98922.27;2201290;88;25650;-74
2022/03/31 02:36:41;;;;;;;;;;;;;;;;;;;;;
2022/03/31 02:44:12;;;;;;;4.05;2.25;;;;;;;7.87;44.43;98923.53;2087916;94;25883;-73
2022/03/31 02:47:48;;;;;;;6.58;2.12;;;;;;;7.85;44.50;98925.22;2089534;93;25737;-74
2022/03/31 02:51:34;;;;;;;3.30;2.08;;;;;;;7.83;44.50;98925.62;2126692;92;25689;-75
2022/03/31 02:59:09;;;;;;;2.65;2.17;;;;;;;7.82;44.58;98922.16;2098301;94;25701;-74
2022/03/31 03:02:33;;;;;;;9.00;2.10;;;;;;;7.78;44.57;98933.36;2044990;96;25783;-75
2022/03/31 03:06:13;;;;;;;3.05;2.17;;;;;;;7.76;44.69;98932.06;2045336;95;25790;-74
2022/03/31 03:09:42;;;;;;;;;;;;;;;7.79;44.66;98938.98;1966919;98;26204;-74
2022/03/31 03:13:17;;;;;;;3.80;2.00;;;;;;;7.75;44.65;98928.13;1946785;97;25794;-74
2022/03/31 03:16:49;;;;;;;2.62;2.08;;;;;;;7.72;44.65;98932.85;1986152;98;25819;-75
2022/03/31 03:20:29;;;;;;;2.20;1.75;;;;;;;7.69;44.67;98928.06;1956089;100;25776;-74
2022/03/31 03:24:01;;;;;;;3.05;2.70;;;;;;;7.66;44.69;98930.22;1958781;99;25857;-74
2022/03/31 03:27:44;;;;;;;2.83;2.08;;;;;;;7.65;44.71;98930.17;1956401;98;25648;-74
2022/03/31 03:31:11;;;;;;;2.72;2.20;;;;;;;7.65;44.74;98922.40;2006798;97;25652;-75
2022/03/31 03:34:32;;;;;;;3.95;2.12;;;;;;;7.63;44.69;98919.80;2001115;98;25906;-75
2022/03/31 03:38:00;;;;;;;2.33;1.97;;;;;;;7.60;44.76;98922.35;2022726;94;25835;-73
2022/03/31 03:41:27;;;;;;;4.10;2.85;;;;;;;7.58;44.81;98921.45;2097090;92;25853;-73
2022/03/31 03:45:05;;;;;;;5.17;2.05;;;;;;;7.59;44.80;98924.48;2089870;94;25294;-74
2022/03/31 03:48:35;;;;;;;4.15;1.85;;;;;;;7.57;44.82;98921.88;2123743;91;25864;-74
2022/03/31 03:52:00;;;;;;;5.62;2.05;;;;;;;7.55;44.80;98922.70;2098400;92;25700;-74
2022/03/31 03:55:37;;;;;;;3.83;2.27;;;;;;;7.55;44.81;98928.76;2036804;94;25755;-74
2022/03/31 03:59:00;;;;;;;2.92;1.98;;;;;;;7.55;44.75;98931.78;2060057;91;25600;-75
2022/03/31 04:02:39;;;;;;;2.60;1.92;;;;;;;7.53;44.84;98933.08;2098162;92;25457;-74
2022/03/31 04:06:12;;;;;;;2.98;2.67;;;;;;;7.49;44.77;98930.01;2134961;91;25859;-74
2022/03/31 04:09:40;;;;;;;2.33;1.90;;;;;;;7.50;44.83;98939.95;2192945;86;25990;-74
2022/03/31 04:13:23;;;;;;;3.15;2.55;;;;;;;7.51;44.79;98942.55;2217523;87;26524;-74
2022/03/31 04:16:45;;;;;;;3.85;2.45;;;;;;;7.52;44.69;98943.41;2177352;88;25890;-75
2022/03/31 04:20:07;;;;;;;4.22;2.70;;;;;;;7.48;44.71;98948.12;2241034;87;25720;-76
2022/03/31 04:23:29;;;;;;;2.85;2.47;;;;;;;7.47;44.73;98945.95;2267466;86;25700;-73
2022/03/31 04:26:53;;;;;;;3.50;2.02;;;;;;;7.42;44.66;98945.01;2277196;86;25624;-73
2022/03/31 04:30:23;;;;;;;4.35;1.87;;;;;;;7.43;44.68;98944.61;2277032;85;25908;-73
2022/03/31 04:33:49;;;;;;;4.47;1.87;;;;;;;7.43;44.68;98954.98;2277257;85;26034;-73
2022/03/31 04:37:10;;;;;;;5.12;2.65;;;;;;;7.45;44.60;98959.75;2277261;85;25592;-73
2022/03/31 04:40:32;;;;;;;4.40;2.30;;;;;;;7.48;44.60;98961.95;2277495;85;26416;-73
2022/03/31 04:44:07;;;;;;;2.40;2.15;;;;;;;7.50;44.54;98969.34;2276805;85;25570;-75
2022/03/31 04:47:27;;;;;;;4.87;2.52;;;;;;;7.50;44.46;98958.96;2276291;86;25620;-73
2022/03/31 04:50:48;;;;;;;6.00;2.23;;;;;;;7.51;44.43;98958.11;2276832;86;35226;-74
2022/03/31 04:54:09;;;;;;;4.42;2.47;;;;;;;7.52;44.43;98961.56;2276816;86;25650;-74
2022/03/31 04:57:33;;;;;;;3.70;2.60;;;;;;;7.52;44.40;98962.43;2277042;85;25806;-73
2022/03/31 05:01:01;;;;;;;7.22;2.42;;;;;;;7.53;44.29;98966.79;2276717;85;25596;-74
2022/03/31 05:04:22;;;;;;;4.20;2.55;;;;;;;7.56;44.25;98965.53;2276250;86;25679;-75
2022/03/31 05:07:42;;;;;;;8.70;3.30;;;;;;;7.58;44.18;98964.23;2276584;86;35865;-74
2022/03/31 05:11:05;;;;;;;4.25;2.70;;;;;;;7.56;44.15;98966.83;2279258;85;25584;-75
2022/03/31 05:14:26;;;;;;;4.20;2.73;;;;;;;7.58;44.11;98967.70;2282476;85;25633;-75
2022/03/31 05:17:47;;;;;;;6.12;3.50;;;;;;;7.63;44.08;98975.56;2281836;85;25517;-74
2022/03/31 05:21:13;;;;;;;7.13;2.93;;;;;;;7.66;43.96;98979.89;2282213;86;25503;-73
2022/03/31 05:24:34;;;;;;;5.47;2.90;;;;;;;7.66;43.96;98983.38;2282495;86;25617;-74
2022/03/31 05:28:04;;;;;;;4.73;2.77;;;;;;;7.68;43.93;98993.33;2282622;86;25208;-73
2022/03/31 05:31:32;;;;;;;4.35;2.70;;;;;;;7.71;43.89;98983.00;2282343;85;25724;-73
2022/03/31 05:34:55;;;;;;;6.00;2.80;;;;;;;7.75;43.90;98985.20;2282256;85;25220;-74
2022/03/31 05:38:16;;;;;;;4.22;3.08;;;;;;;7.81;43.86;98981.39;2282283;85;25715;-74
2022/03/31 05:41:40;;;;;;;4.37;2.63;;;;;;;7.86;43.76;98985.33;2282229;86;34625;-74
2022/03/31 05:45:27;;;;;;;;;;;;;;;;;;;;;
2022/03/31 05:48:55;;;;;;;3.87;3.30;;;;;;;7.91;43.78;98993.63;2282671;86;25593;-74
2022/03/31 05:52:31;;;;;;;5.45;3.40;;;;;;;7.95;43.76;98997.13;2282661;85;25651;-74
2022/03/31 05:55:52;;;;;;;3.40;3.10;;;;;;;8.00;43.71;99005.42;2282716;85;25680;-73
2022/03/31 05:59:15;;;;;;;11.15;3.52;;;;;;;8.04;43.61;99008.92;2282712;85;25623;-74
2022/03/31 06:02:35;;;;;;;6.35;3.25;;;;;;;8.11;43.61;99015.91;2282197;85;25632;-74
2022/03/31 06:05:56;;;;;;;12.50;4.27;;;;;;;8.16;43.50;99017.25;2282151;86;25757;-75
2022/03/31 06:09:26;;;;;;;4.63;3.10;;;;;;;8.22;43.42;99021.23;2282270;85;26592;-74
2022/03/31 06:12:58;;;;;;;7.47;2.83;;;;;;;8.30;43.46;99020.87;2276638;85;25646;-74
2022/03/31 06:16:19;;;;;;;5.10;3.27;;;;;;;8.39;43.37;99024.91;2276423;85;25255;-74
2022/03/31 06:19:53;;;;;;;9.40;3.02;;;;;;;8.47;43.23;99018.48;2267120;85;25763;-73
2022/03/31 06:23:30;;;;;;;10.18;2.87;;;;;;;8.55;43.11;99017.28;2266971;85;26304;-74
2022/03/31 06:27:13;;;;;;;4.47;3.70;;;;;;;8.65;42.98;99027.77;2267121;86;25701;-74
2022/03/31 06:30:34;;;;;;;5.90;3.00;;;;;;;8.77;42.86;99030.03;2276778;85;25708;-74
2022/03/31 06:33:55;;;;;;;9.73;3.47;;;;;;;8.90;42.75;99033.18;2276777;85;25612;-74
2022/03/31 06:37:16;;;;;;;5.40;3.37;;;;;;;8.98;42.59;99040.63;2276605;85;34676;-74
2022/03/31 06:40:41;;;;;;;16.57;4.37;;;;;;;9.06;42.34;99039.39;2276640;85;25723;-74
2022/03/31 06:44:02;;;;;;;8.73;3.20;;;;;;;9.14;42.27;99035.11;2275573;86;25598;-74
2022/03/31 06:47:29;;;;;;;4.37;2.90;;;;;;;9.29;42.14;99040.44;2276676;87;25597;-74
2022/03/31 06:51:00;;;;;;;3.50;2.92;;;;;;;9.52;42.03;99038.39;2276013;85;25724;-74
2022/03/31 06:54:20;;;;;;;3.42;3.12;;;;;;;9.73;41.83;99034.64;2276267;85;25668;-73
2022/03/31 06:57:41;;;;;;;5.32;2.96;;;;;;;9.93;41.51;99034.30;2276655;86;29892;-74
2022/03/31 07:01:05;;;;;;;6.90;2.87;;;;;;;10.17;41.29;99032.66;2276290;85;25756;-74
2022/03/31 07:04:29;;;;;;;5.70;3.02;;;;;;;10.32;41.04;99031.42;2276210;86;53922;-72
2022/03/31 07:07:50;;;;;;;5.33;2.58;;;;;;;10.32;40.92;99048.80;2276751;85;25647;-73
2022/03/31 07:11:11;;;;;;;8.28;3.34;;;;;;;10.29;40.83;99048.37;2261229;86;30059;-74
2022/03/31 07:14:38;;;;;;;3.33;2.47;;;;;;;10.34;40.75;99044.47;2355577;82;25795;-75
2022/03/31 07:18:15;;;;;;;7.05;3.12;;;;;;;10.47;40.69;99047.98;2355874;83;25542;-73
2022/03/31 07:21:43;;;;;;;3.77;3.00;;;;;;;10.67;40.54;99046.30;2361861;82;25748;-74
2022/03/31 07:25:11;;;;;;;4.72;3.25;;;;;;;10.85;40.50;99041.09;2194280;89;34813;-74
2022/03/31 07:28:33;;;;;;;3.45;2.50;;;;;;;11.02;40.28;99038.50;2190383;88;26034;-73
2022/03/31 07:31:54;;;;;;;6.33;2.60;;;;;;;11.23;40.20;99035.00;2194635;88;28987;-76
2022/03/31 07:35:20;;;;;;;2.70;2.00;;;;;;;11.44;40.16;99037.16;2193784;88;25722;-75
2022/03/31 07:38:41;;;;;;;5.75;2.90;;;;;;;11.66;40.01;99038.00;2194745;90;25740;-75
2022/03/31 07:42:02;;;;;;;4.00;2.20;;;;;;;11.91;39.79;99038.38;2194604;90;30794;-73
2022/03/31 07:45:28;;;;;;;4.47;2.35;;;;;;;12.19;39.63;99039.16;2194592;88;26187;-73
2022/03/31 07:48:54;;;;;;;4.92;2.58;;;;;;;12.43;39.44;99042.53;2172648;90;31285;-76
2022/03/31 07:52:27;;;;;;;4.25;2.02;;;;;;;12.65;39.21;99048.05;2133366;90;25781;-74
2022/03/31 07:55:51;;;;;;;3.67;2.70;;;;;;;12.82;39.00;99046.63;2187722;88;25700;-76
2022/03/31 07:59:14;;;;;;;3.30;2.45;;;;;;;12.95;38.87;99036.95;2205704;88;25778;-75
2022/03/31 08:02:35;;;;;;;6.35;2.55;;;;;;;13.12;38.80;99049.90;2228041;88;25703;-73
2022/03/31 08:05:55;;;;;;;2.70;1.87;;;;;;;13.39;38.64;99047.52;2228162;88;30984;-72
2022/03/31 08:09:21;;;;;;;2.58;2.37;;;;;;;13.88;38.42;99050.52;2228127;88;25731;-75
2022/03/31 08:12:45;;;;;;;2.65;2.10;;;;;;;14.56;38.04;99058.44;2234576;88;25712;-76
2022/03/31 08:16:22;;;;;;;3.00;1.92;;;;;;;15.05;37.59;99062.08;2237276;88;25731;-74
2022/03/31 08:19:52;;;;;;;4.35;2.08;;;;;;;15.68;37.26;99053.19;2235677;88;25768;-76
2022/03/31 08:23:13;;;;;;;4.92;1.50;;;;;;;16.00;36.61;99069.22;2383558;82;25754;-73
2022/03/31 08:26:34;;;;;;;3.02;1.95;;;;;;;15.87;36.53;99069.03;2393778;82;25804;-76
2022/03/31 08:29:55;;;;;;;2.65;1.80;;;;;;;15.65;36.56;99071.59;2393969;82;30763;-76
2022/03/31 08:33:16;;;;;;;6.05;1.75;;;;;;;15.46;36.69;99064.50;2394244;82;25613;-73
2022/03/31 08:36:37;;;;;;;4.05;1.65;;;;;;;15.35;36.78;99074.75;2394184;81;30798;-74
2022/03/31 08:39:59;;;;;;;2.50;1.95;;;;;;;15.25;36.84;99067.88;2332370;82;25696;-73
2022/03/31 08:43:26;;;;;;;3.05;1.60;;;;;;;15.11;37.01;99088.24;2312339;85;25646;-80
2022/03/31 08:46:49;;;;;;;2.42;1.60;;;;;;;15.00;37.11;99095.42;2360112;83;26207;-72
2022/03/31 08:50:10;;;;;;;3.42;1.45;;;;;;;15.02;37.21;99072.21;2362874;83;25571;-72
2022/03/31 08:53:32;;;;;;;2.25;1.75;;;;;;;15.19;37.16;99056.20;2363447;83;25657;-81
2022/03/31 08:56:55;;;;;;;3.67;1.60;;;;;;;15.33;37.12;99069.09;2362938;83;25594;-75
2022/03/31 09:00:23;;;;;;;1.75;1.47;;;;;;;15.34;37.02;99055.92;2363618;83;31336;-75
2022/03/31 09:03:44;;;;;;;2.25;1.70;;;;;;;15.30;37.12;99066.06;2339805;83;25692;-73
2022/03/31 09:07:08;;;;;;;1.82;1.55;;;;;;;15.21;37.19;99072.77;2361532;83;25531;-76
2022/03/31 09:10:52;;;;;;;3.35;1.75;;;;;;;15.13;37.29;99075.11;2363184;82;25655;-74
2022/03/31 09:14:14;;;;;;;1.72;1.30;;;;;;;15.05;37.32;99066.92;2362850;82;25726;-73
2022/03/31 09:17:40;;;;;;;3.12;1.35;;;;;;;15.00;37.56;99070.48;2363391;82;30801;-75
2022/03/31 09:21:15;;;;;;;2.05;1.37;;;;;;;15.00;37.56;99066.55;2315934;83;25723;-72
2022/03/31 09:24:37;;;;;;;3.17;1.67;;;;;;;15.05;37.61;99055.52;2333021;84;25362;-78
2022/03/31 09:28:01;;;;;;;4.47;1.82;;;;;;;15.07;37.53;99060.31;2350884;83;25666;-75
2022/03/31 09:31:24;;;;;;;1.87;1.30;;;;;;;15.06;37.61;99069.09;2358468;83;25561;-78
2022/03/31 09:34:48;;;;;;;2.25;1.47;;;;;;;15.05;37.64;99079.14;2366591;82;25765;-79
2022/03/31 09:38:13;;;;;;;4.78;2.00;;;;;;;15.06;37.70;99073.03;2365938;83;25166;-76
2022/03/31 09:41:37;;;;;;;1.70;1.50;;;;;;;15.02;37.69;99073.52;2363180;83;25693;-72
2022/03/31 09:45:16;;;;;;;2.02;1.10;;;;;;;14.97;37.69;99080.58;2362751;82;25527;-74
2022/03/31 09:48:43;;;;;;;3.47;1.50;;;;;;;14.92;37.73;99081.11;2361106;83;25667;-73
2022/03/31 09:52:09;;;;;;;1.95;1.20;;;;;;;14.85;37.76;99079.02;2337862;83;25691;-81
2022/03/31 09:55:34;;;;;;;3.52;1.42;;;;;;;14.82;37.74;99075.58;2361543;83;25733;-81
2022/03/31 09:59:00;;;;;;;3.65;1.40;;;;;;;14.75;37.79;99066.03;2364511;82;25752;-72
2022/03/31 10:02:21;;;;;;;2.80;1.40;;;;;;;14.71;37.81;99080.09;2363341;82;25119;-78
2022/03/31 10:05:45;;;;;;;2.67;1.27;;;;;;;14.68;37.92;99081.44;2363318;83;25563;-80
2022/03/31 10:09:12;;;;;;;3.02;2.00;;;;;;;14.64;37.99;99075.38;2363272;83;25660;-76
2022/03/31 10:12:44;;;;;;;2.05;1.27;;;;;;;14.61;38.05;99078.92;2361888;82;25617;-75
2022/03/31 10:16:19;;;;;;;2.27;1.35;;;;;;;14.58;38.17;99072.86;2363241;82;25669;-74
2022/03/31 10:19:41;;;;;;;3.20;1.67;;;;;;;14.58;38.20;99075.03;2362378;83;25576;-79
2022/03/31 10:27:01;;;;;;;4.60;1.27;;;;;;;14.60;38.25;99065.81;2365375;82;25675;-78
2022/03/31 10:30:25;;;;;;;1.47;1.37;;;;;;;14.59;38.21;99061.02;2362386;82;25768;-77
2022/03/31 10:33:52;;;;;;;1.42;1.30;;;;;;;14.60;38.29;99063.20;2362912;82;25646;-81
2022/03/31 10:37:13;;;;;;;2.50;1.80;;;;;;;14.61;38.28;99063.19;2361368;82;25686;-74
2022/03/31 10:40:42;;;;;;;1.65;1.50;;;;;;;14.61;38.25;99067.12;2360939;83;31551;-75
2022/03/31 10:44:04;;;;;;;3.90;1.72;;;;;;;14.63;38.25;99057.91;2359447;82;25630;-79
2022/03/31 10:47:40;;;;;;;4.67;1.60;;;;;;;14.64;38.35;99059.19;2327563;84;25873;-78
2022/03/31 10:51:11;;;;;;;4.47;1.92;;;;;;;14.67;38.50;99072.70;2320378;84;25768;-80
2022/03/31 10:54:37;;;;;;;2.65;1.40;;;;;;;14.67;38.50;99072.70;2315034;84;25796;-77
2022/03/31 10:58:06;;;;;;;2.55;1.45;;;;;;;14.54;38.46;99040.53;2318696;85;26261;-77
2022/03/31 11:01:31;;;;;;;3.22;1.32;;;;;;;14.68;38.40;99060.04;2318463;84;25694;-79
2022/03/31 11:04:58;;;;;;;2.98;1.57;;;;;;;14.69;38.48;99059.14;2320178;81;25694;-77
2022/03/31 11:08:22;;;;;;;3.40;1.65;;;;;;;14.72;38.44;99059.55;2314813;85;25742;-80
2022/03/31 11:11:43;;;;;;;1.98;1.32;;;;;;;14.60;38.51;99030.41;2316087;84;25932;-73
2022/03/31 11:15:09;;;;;;;2.27;1.75;;;;;;;14.60;38.51;99030.41;2316517;85;31560;-73
2022/03/31 11:18:40;;;;;;;2.30;1.85;;;;;;;14.76;38.41;99060.78;2316051;83;25761;-74
2022/03/31 11:22:06;;;;;;;6.10;2.08;;;;;;;14.74;37.47;99055.98;2314826;85;25805;-73
2022/03/31 11:25:33;;;;;;;2.95;2.08;;;;;;;14.60;36.35;99051.39;2353027;83;25610;-71
2022/03/31 11:29:01;;;;;;;2.83;2.05;;;;;;;14.68;35.78;99036.43;2359003;82;26223;-72
2022/03/31 11:32:43;;;;;;;5.80;2.33;;;;;;;14.77;34.83;99031.02;2362581;83;25607;-71
2022/03/31 11:36:09;;;;;;;5.03;2.00;;;;;;;14.85;36.37;99040.12;2354403;82;25688;-73
2022/03/31 11:39:36;;;;;;;4.58;2.12;;;;;;;15.17;37.53;99055.79;2332675;83;25607;-74
2022/03/31 11:43:01;;;;;;;3.42;1.52;;;;;;;15.50;38.03;99047.80;2359385;83;25670;-73
2022/03/31 11:46:22;;;;;;;2.00;1.52;;;;;;;15.73;37.90;99049.59;2358268;83;25719;-72
2022/03/31 11:49:44;;;;;;;4.10;2.05;;;;;;;15.97;38.08;99049.56;2362372;83;30859;-75
2022/03/31 11:53:40;;;;;;;7.58;1.90;;;;;;;16.21;38.04;99053.91;2359353;82;25687;-75
2022/03/31 12:00:34;;;;;;;5.08;2.45;;;;;;;16.63;37.49;99051.25;2162516;90;25878;-75
2022/03/31 12:03:55;;;;;;;5.05;1.80;;;;;;;16.77;37.41;99047.88;2159404;91;26422;-73
2022/03/31 12:07:19;;;;;;;6.30;2.22;;;;;;;16.92;37.70;99048.86;2159187;90;30963;-73
2022/03/31 12:10:40;;;;;;;2.55;1.80;;;;;;;17.06;37.71;99046.34;2158763;90;25835;-75
2022/03/31 12:14:02;;;;;;;4.22;1.95;;;;;;;17.10;37.55;99044.91;2172697;90;30835;-72
2022/03/31 12:17:26;;;;;;;9.03;1.92;;;;;;;17.22;37.96;99043.30;2177670;90;25861;-72
2022/03/31 12:20:52;;;;;;;7.65;1.65;;;;;;;17.56;37.84;99048.17;2177634;89;25753;-74
2022/03/31 12:24:14;;;;;;;2.42;1.35;;;;;;;17.74;37.87;99052.08;2175066;89;25969;-76
2022/03/31 12:27:51;;;;;;;10.58;2.00;;;;;;;17.86;38.07;99043.42;2176163;90;25695;-81
2022/03/31 12:31:31;;;;;;;2.35;1.50;;;;;;;18.02;37.98;99037.71;2175831;90;25707;-75
2022/03/31 12:35:09;;;;;;;7.17;1.70;;;;;;;18.17;37.78;99039.47;2176637;90;25858;-77
2022/03/31 12:38:49;;;;;;;5.20;1.72;;;;;;;18.39;37.37;99026.53;2176333;90;25846;-79
2022/03/31 12:42:19;;;;;;;1.95;1.42;;;;;;;18.56;36.74;99030.41;2176634;90;25665;-78
2022/03/31 12:45:42;;;;;;;1.85;1.35;;;;;;;18.69;35.98;99032.22;2176037;89;25875;-75
2022/03/31 12:49:08;;;;;;;1.15;1.05;;;;;;;18.79;35.28;99032.37;2156422;90;25295;-79
2022/03/31 12:52:29;;;;;;;2.33;2.12;;;;;;;18.91;34.45;99015.29;2176532;90;25838;-73
2022/03/31 12:55:53;;;;;;;5.65;1.50;;;;;;;19.15;33.67;99009.66;2202459;83;30970;-79
2022/03/31 12:59:26;;;;;;;2.25;1.40;;;;;;;19.29;33.09;99004.31;2313124;83;25703;-76
2022/03/31 13:02:56;;;;;;;2.08;1.65;;;;;;;19.37;32.42;99011.11;2355065;83;25626;-72
2022/03/31 13:06:17;;;;;;;2.00;1.70;;;;;;;19.50;31.97;99003.16;2355098;82;25742;-76
2022/03/31 13:09:56;;;;;;;3.02;1.42;;;;;;;19.53;31.68;99005.23;2353604;82;25763;-74
2022/03/31 13:13:24;;;;;;;2.22;1.80;;;;;;;19.59;31.32;99002.84;2357242;82;25558;-75
2022/03/31 13:16:46;;;;;;;7.12;2.90;;;;;;;19.62;31.18;99009.81;2321742;84;25759;-77
2022/03/31 13:20:19;;;;;;;16.60;4.35;;;;;;;19.68;31.49;98996.42;2332255;84;26408;-74
2022/03/31 13:23:42;;;;;;;14.45;4.25;;;;;;;19.70;31.92;99002.03;2358348;83;25666;-79
2022/03/31 13:27:11;;;;;;;14.87;4.53;;;;;;;19.71;32.51;98999.81;2361762;82;25618;-79
2022/03/31 13:30:40;;;;;;;10.75;3.50;;;;;;;19.69;32.96;98999.45;2338951;83;25681;-79
2022/03/31 13:34:11;;;;;;;11.10;3.60;;;;;;;19.66;33.31;99001.75;2339913;83;25668;-76
2022/03/31 13:37:34;;;;;;;11.50;4.37;;;;;;;19.71;33.57;99004.21;2361164;83;25682;-77
2022/03/31 13:41:01;;;;;;;9.58;3.42;;;;;;;19.74;33.71;99003.67;2362965;83;25710;-73
2022/03/31 13:44:24;;;;;;;3.62;2.58;;;;;;;19.76;33.60;99004.93;2363349;82;25588;-77
2022/03/31 13:48:05;;;;;;;5.78;3.22;;;;;;;19.76;33.42;98999.17;2363852;83;25632;-75
2022/03/31 13:51:28;;;;;;;4.53;2.40;;;;;;;19.71;33.05;99001.56;2340891;84;25990;-74
2022/03/31 13:55:06;;;;;;;5.20;2.42;;;;;;;19.51;33.05;99000.95;2342131;83;26055;-79
2022/03/31 14:02:28;;;;;;;;;;;;;;;19.22;33.27;98995.33;2282572;85;25369;-75
2022/03/31 14:05:54;;;;;;;5.67;2.20;;;;;;;19.05;33.35;98987.50;2302404;84;25754;-75
2022/03/31 14:09:24;;;;;;;4.12;2.05;;;;;;;18.87;33.64;98987.66;2301449;84;31332;-77
2022/03/31 14:12:40;;;;;;;3.60;2.05;;;;;;;18.73;33.83;98982.40;2341517;84;25802;-78
2022/03/31 14:16:03;;;;;;;6.15;2.02;;;;;;;18.63;34.13;98972.13;2310656;84;25751;-78
2022/03/31 14:19:41;;;;;;;7.03;2.60;;;;;;;18.57;34.43;98963.08;2289271;86;25636;-73
2022/03/31 14:23:07;;;;;;;5.75;2.17;;;;;;;18.52;34.77;98962.34;2288833;86;25704;-74
2022/03/31 14:26:28;;;;;;;4.03;2.00;;;;;;;18.49;35.13;98964.21;2289093;86;25725;-74
2022/03/31 14:29:49;;;;;;;5.67;2.22;;;;;;;18.47;35.52;98962.09;2289386;86;31008;-75
2022/03/31 14:33:10;;;;;;;6.03;2.27;;;;;;;18.49;35.83;98953.66;2293706;85;25239;-74
2022/03/31 14:36:35;;;;;;;4.95;1.92;;;;;;;18.51;36.19;98960.62;2297954;86;31535;-74
2022/03/31 14:40:10;;;;;;;3.52;1.82;;;;;;;18.54;36.56;98953.08;2297944;86;25313;-73
2022/03/31 14:43:30;;;;;;;3.92;2.10;;;;;;;18.54;36.80;98948.66;2297841;84;25879;-74
2022/03/31 14:46:55;;;;;;;4.23;1.97;;;;;;;18.55;37.27;98943.77;2298147;84;30928;-75
2022/03/31 14:50:15;;;;;;;3.55;1.55;;;;;;;18.54;37.51;98942.05;2297848;86;25696;-78
2022/03/31 14:53:42;;;;;;;16.80;10.98;;;;;;;18.51;37.85;98946.11;2311341;83;29073;-77
2022/03/31 14:57:15;;;;;;;;;;;;;;;;;;;;;
2022/03/31 15:00:30;;;;;;;31.07;17.87;;;;;;;18.39;38.29;98933.29;2320850;85;25612;-79
2022/03/31 15:04:07;;;;;;;31.87;18.40;;;;;;;18.27;38.50;98926.64;2328166;83;30921;-77
2022/03/31 15:07:39;;;;;;;36.65;19.20;;;;;;;18.15;38.76;98925.22;2327654;83;25705;-74
2022/03/31 15:14:51;;;;;;;23.52;14.50;;;;;;;17.89;39.18;98918.12;2340800;83;25697;-81
2022/03/31 15:18:12;;;;;;;7.97;5.53;;;;;;;17.74;38.11;98905.80;2320165;84;25553;-75
2022/03/31 15:21:37;;;;;;;5.45;3.02;;;;;;;17.36;34.92;98896.77;2318875;85;30756;-77
2022/03/31 15:25:10;;;;;;;3.92;2.40;;;;;;;16.99;32.89;98890.30;2243251;86;25759;-74
2022/03/31 15:28:38;;;;;;;4.78;2.27;;;;;;;16.64;31.36;98888.10;2244109;86;25910;-80
2022/03/31 15:31:59;;;;;;;5.55;2.30;;;;;;;16.34;30.62;98889.71;2185407;88;25598;-76
2022/03/31 15:35:39;;;;;;;3.02;2.22;;;;;;;16.18;30.52;98891.82;2180585;89;31443;-78
2022/03/31 15:39:36;;;;;;;;;;;;;;;;;;;;;
2022/03/31 15:42:50;;;;;;;4.65;1.70;;;;;;;16.06;30.61;98888.14;2175900;90;25740;-74
2022/03/31 15:46:28;;;;;;;3.27;2.02;;;;;;;15.97;30.79;98893.63;2180944;90;30932;-75
2022/03/31 15:49:50;;;;;;;6.53;2.30;;;;;;;15.89;30.85;98881.95;2180545;90;25704;-75
2022/03/31 15:53:23;;;;;;;4.62;2.62;;;;;;;15.81;31.04;98887.84;2180281;90;25790;-75
2022/03/31 15:56:51;;;;;;;4.85;1.90;;;;;;;15.74;31.22;98885.78;2180054;90;25317;-74
2022/03/31 16:00:26;;;;;;;1.98;1.62;;;;;;;15.65;31.33;98892.50;2160032;90;25882;-74
2022/03/31 16:04:11;;;;;;;3.52;1.60;;;;;;;15.55;31.41;98890.97;2174799;90;25847;-77
2022/03/31 16:07:57;;;;;;;4.45;1.82;;;;;;;15.45;31.49;98897.30;2180302;90;25725;-75
2022/03/31 16:11:56;;;;;;;1.70;1.60;;;;;;;15.33;31.57;98899.28;2180155;89;25770;-79
2022/03/31 16:15:39;;;;;;;2.25;1.85;;;;;;;15.23;31.61;98906.06;2193652;88;25775;-78
2022/03/31 16:19:33;;;;;;;2.27;1.70;;;;;;;15.09;31.60;98899.30;2089588;93;26265;-80
2022/03/31 16:26:59;;;;;;;3.98;1.95;;;;;;;14.60;31.54;98880.92;2206967;88;25704;-82
2022/03/31 16:30:43;;;;;;;2.00;1.50;;;;;;;14.60;31.54;98880.92;2128544;93;26113;-78
2022/03/31 16:34:15;;;;;;;3.25;1.62;;;;;;;14.66;31.60;98919.31;2085095;93;25749;-75
2022/03/31 16:37:41;;;;;;;2.92;1.30;;;;;;;14.55;31.64;98919.04;2085390;93;25923;-76
2022/03/31 16:41:57;;;;;;;2.12;1.30;;;;;;;14.33;31.50;98910.59;2021641;96;25840;-76
2022/03/31 16:45:39;;;;;;;4.53;1.55;;;;;;;14.33;31.50;98910.59;2023937;97;26588;-75
2022/03/31 16:49:02;;;;;;;2.33;1.57;;;;;;;14.11;31.56;98927.09;1935455;100;25405;-78
2022/03/31 16:52:25;;;;;;;1.80;1.27;;;;;;;14.11;31.56;98927.09;1936733;98;31478;-74
2022/03/31 16:59:57;;;;;;;2.37;1.40;;;;;;;13.99;31.37;98933.80;1994703;97;25446;-75
2022/03/31 17:09:11;;;;;;;2.42;1.72;;;;;;;13.82;31.63;98939.70;1960602;99;25857;-75
2022/03/31 17:13:00;;;;;;;;;;;;;;;;;;;;;
2022/03/31 17:16:44;;;;;;;2.17;1.95;;;;;;;13.63;31.61;98951.70;1936424;101;25829;-76
2022/03/31 17:20:39;;;;;;;4.70;1.80;;;;;;;13.56;31.64;98957.89;1978978;98;25894;-80
2022/03/31 17:24:21;;;;;;;2.80;2.30;;;;;;;13.50;31.60;98968.88;1976173;98;26013;-77